sensor_id;sensor_type;location;lat;lon;timestamp;temperature;humidity
67559;DHT22;54388;53.536;49.300;2023-04-25T00:00:54;17.60;38.80
67559;DHT22;54388;53.536;49.300;2023-04-25T00:03:23;17.60;38.80
67559;DHT22;54388;53.536;49.300;2023-04-25T00:05:56;17.60;38.80
67559;DHT22;54388;53.536;49.300;2023-04-25T00:08:25;17.70;38.80
67559;DHT22;54388;53.536;49.300;2023-04-25T00:10:55;17.70;38.70
67559;DHT22;54388;53.536;49.300;2023-04-25T00:13:25;17.70;38.70
67559;DHT22;54388;53.536;49.300;2023-04-25T00:15:58;17.70;38.60
67559;DHT22;54388;53.536;49.300;2023-04-25T00:18:33;17.70;38.60
67559;DHT22;54388;53.536;49.300;2023-04-25T00:21:02;17.70;38.60
67559;DHT22;54388;53.536;49.300;2023-04-25T00:23:31;17.80;38.60
67559;DHT22;54388;53.536;49.300;2023-04-25T00:26:03;17.80;38.60
67559;DHT22;54388;53.536;49.300;2023-04-25T00:28:29;17.80;38.60
67559;DHT22;54388;53.536;49.300;2023-04-25T00:31:01;17.80;38.60
67559;DHT22;54388;53.536;49.300;2023-04-25T00:33:32;17.80;38.60
67559;DHT22;54388;53.536;49.300;2023-04-25T00:36:03;17.90;38.50
67559;DHT22;54388;53.536;49.300;2023-04-25T00:38:32;17.90;38.50
67559;DHT22;54388;53.536;49.300;2023-04-25T00:40:58;17.80;38.40
67559;DHT22;54388;53.536;49.300;2023-04-25T00:43:30;17.90;39.40
67559;DHT22;54388;53.536;49.300;2023-04-25T00:46:00;17.90;38.40
67559;DHT22;54388;53.536;49.300;2023-04-25T00:48:31;17.90;38.40
67559;DHT22;54388;53.536;49.300;2023-04-25T00:51:02;18.00;38.40
67559;DHT22;54388;53.536;49.300;2023-04-25T00:53:34;18.00;38.40
67559;DHT22;54388;53.536;49.300;2023-04-25T00:56:00;18.00;38.40
67559;DHT22;54388;53.536;49.300;2023-04-25T00:58:31;18.00;38.40
67559;DHT22;54388;53.536;49.300;2023-04-25T01:00:58;18.00;39.50
67559;DHT22;54388;53.536;49.300;2023-04-25T01:03:31;18.00;38.40
67559;DHT22;54388;53.536;49.300;2023-04-25T01:06:01;18.00;38.40
67559;DHT22;54388;53.536;49.300;2023-04-25T01:08:30;18.00;38.40
67559;DHT22;54388;53.536;49.300;2023-04-25T01:11:00;18.00;38.40
67559;DHT22;54388;53.536;49.300;2023-04-25T01:13:29;18.10;38.60
67559;DHT22;54388;53.536;49.300;2023-04-25T01:15:55;18.10;38.50
67559;DHT22;54388;53.536;49.300;2023-04-25T01:18:25;18.10;38.60
67559;DHT22;54388;53.536;49.300;2023-04-25T01:20:52;18.10;38.60
67559;DHT22;54388;53.536;49.300;2023-04-25T01:23:22;18.10;38.60
67559;DHT22;54388;53.536;49.300;2023-04-25T01:25:49;18.10;38.60
67559;DHT22;54388;53.536;49.300;2023-04-25T01:28:22;18.10;38.60
67559;DHT22;54388;53.536;49.300;2023-04-25T01:30:51;18.10;38.70
67559;DHT22;54388;53.536;49.300;2023-04-25T01:33:19;18.10;38.70
67559;DHT22;54388;53.536;49.300;2023-04-25T01:35:47;18.10;38.80
67559;DHT22;54388;53.536;49.300;2023-04-25T01:38:18;18.20;38.80
67559;DHT22;54388;53.536;49.300;2023-04-25T01:40:45;18.20;38.80
67559;DHT22;54388;53.536;49.300;2023-04-25T01:43:17;18.20;38.80
67559;DHT22;54388;53.536;49.300;2023-04-25T01:45:46;18.20;38.90
67559;DHT22;54388;53.536;49.300;2023-04-25T01:48:16;18.20;38.80
67559;DHT22;54388;53.536;49.300;2023-04-25T01:50:48;18.20;39.00
67559;DHT22;54388;53.536;49.300;2023-04-25T01:53:17;18.20;39.00
67559;DHT22;54388;53.536;49.300;2023-04-25T01:55:46;18.20;39.00
67559;DHT22;54388;53.536;49.300;2023-04-25T01:58:16;18.20;39.00
67559;DHT22;54388;53.536;49.300;2023-04-25T02:00:46;18.20;39.10
67559;DHT22;54388;53.536;49.300;2023-04-25T02:03:17;18.20;39.10
67559;DHT22;54388;53.536;49.300;2023-04-25T02:05:44;18.20;39.20
67559;DHT22;54388;53.536;49.300;2023-04-25T02:08:13;18.20;39.20
67559;DHT22;54388;53.536;49.300;2023-04-25T02:10:40;18.20;39.30
67559;DHT22;54388;53.536;49.300;2023-04-25T02:13:07;18.20;39.20
67559;DHT22;54388;53.536;49.300;2023-04-25T02:15:39;18.30;39.30
67559;DHT22;54388;53.536;49.300;2023-04-25T02:18:08;18.30;39.40
67559;DHT22;54388;53.536;49.300;2023-04-25T02:20:36;18.30;39.40
67559;DHT22;54388;53.536;49.300;2023-04-25T02:23:06;18.30;39.50
67559;DHT22;54388;53.536;49.300;2023-04-25T02:25:32;18.30;39.50
67559;DHT22;54388;53.536;49.300;2023-04-25T02:27:59;18.30;39.60
67559;DHT22;54388;53.536;49.300;2023-04-25T02:30:29;18.30;39.60
67559;DHT22;54388;53.536;49.300;2023-04-25T02:32:56;18.30;39.60
67559;DHT22;54388;53.536;49.300;2023-04-25T02:35:28;18.40;39.90
67559;DHT22;54388;53.536;49.300;2023-04-25T02:37:57;18.40;40.00
67559;DHT22;54388;53.536;49.300;2023-04-25T02:40:26;18.50;41.20
67559;DHT22;54388;53.536;49.300;2023-04-25T02:42:53;18.50;40.30
67559;DHT22;54388;53.536;49.300;2023-04-25T02:45:21;18.60;40.60
67559;DHT22;54388;53.536;49.300;2023-04-25T02:47:51;18.70;40.70
67559;DHT22;54388;53.536;49.300;2023-04-25T02:50:18;18.70;40.80
67559;DHT22;54388;53.536;49.300;2023-04-25T02:52:47;18.90;41.00
67559;DHT22;54388;53.536;49.300;2023-04-25T02:55:13;18.90;41.10
67559;DHT22;54388;53.536;49.300;2023-04-25T02:57:42;19.00;41.20
67559;DHT22;54388;53.536;49.300;2023-04-25T03:00:09;19.10;41.30
67559;DHT22;54388;53.536;49.300;2023-04-25T03:02:40;19.20;41.40
67559;DHT22;54388;53.536;49.300;2023-04-25T03:05:09;19.30;41.70
67559;DHT22;54388;53.536;49.300;2023-04-25T03:07:38;19.40;41.80
67559;DHT22;54388;53.536;49.300;2023-04-25T03:10:11;19.50;41.80
67559;DHT22;54388;53.536;49.300;2023-04-25T03:12:37;19.50;41.50
67559;DHT22;54388;53.536;49.300;2023-04-25T03:15:07;19.60;41.30
67559;DHT22;54388;53.536;49.300;2023-04-25T03:17:38;19.70;41.10
67559;DHT22;54388;53.536;49.300;2023-04-25T03:20:08;19.80;41.00
67559;DHT22;54388;53.536;49.300;2023-04-25T03:22:42;19.80;40.30
67559;DHT22;54388;53.536;49.300;2023-04-25T03:25:11;19.90;41.00
67559;DHT22;54388;53.536;49.300;2023-04-25T03:27:42;20.00;41.00
67559;DHT22;54388;53.536;49.300;2023-04-25T03:30:09;20.00;41.00
67559;DHT22;54388;53.536;49.300;2023-04-25T03:32:35;20.10;41.00
67559;DHT22;54388;53.536;49.300;2023-04-25T03:35:02;20.20;41.00
67559;DHT22;54388;53.536;49.300;2023-04-25T03:37:29;20.20;41.00
67559;DHT22;54388;53.536;49.300;2023-04-25T03:39:58;20.20;41.20
67559;DHT22;54388;53.536;49.300;2023-04-25T03:42:29;20.30;41.30
67559;DHT22;54388;53.536;49.300;2023-04-25T03:44:56;20.40;41.40
67559;DHT22;54388;53.536;49.300;2023-04-25T03:47:25;20.40;41.20
67559;DHT22;54388;53.536;49.300;2023-04-25T03:49:51;20.50;41.10
67559;DHT22;54388;53.536;49.300;2023-04-25T03:52:18;20.50;40.90
67559;DHT22;54388;53.536;49.300;2023-04-25T03:54:47;20.60;40.80
67559;DHT22;54388;53.536;49.300;2023-04-25T03:57:15;20.60;40.60
67559;DHT22;54388;53.536;49.300;2023-04-25T03:59:48;20.70;40.50
67559;DHT22;54388;53.536;49.300;2023-04-25T04:02:15;20.70;40.50
67559;DHT22;54388;53.536;49.300;2023-04-25T04:04:43;20.70;40.60
67559;DHT22;54388;53.536;49.300;2023-04-25T04:07:10;20.80;40.80
67559;DHT22;54388;53.536;49.300;2023-04-25T04:09:37;20.80;40.80
67559;DHT22;54388;53.536;49.300;2023-04-25T04:12:05;20.90;40.80
67559;DHT22;54388;53.536;49.300;2023-04-25T04:14:32;20.90;40.80
67559;DHT22;54388;53.536;49.300;2023-04-25T04:17:02;20.90;40.60
67559;DHT22;54388;53.536;49.300;2023-04-25T04:19:28;21.00;40.60
67559;DHT22;54388;53.536;49.300;2023-04-25T04:21:57;21.00;40.50
67559;DHT22;54388;53.536;49.300;2023-04-25T04:24:27;21.10;40.30
67559;DHT22;54388;53.536;49.300;2023-04-25T04:26:53;21.10;40.00
67559;DHT22;54388;53.536;49.300;2023-04-25T04:29:20;21.20;39.90
67559;DHT22;54388;53.536;49.300;2023-04-25T04:31:50;21.30;39.70
67559;DHT22;54388;53.536;49.300;2023-04-25T04:34:17;21.30;39.80
67559;DHT22;54388;53.536;49.300;2023-04-25T04:36:45;21.40;40.00
67559;DHT22;54388;53.536;49.300;2023-04-25T04:39:14;21.50;40.10
67559;DHT22;54388;53.536;49.300;2023-04-25T04:41:41;21.60;40.00
67559;DHT22;54388;53.536;49.300;2023-04-25T04:44:09;21.70;39.70
67559;DHT22;54388;53.536;49.300;2023-04-25T04:46:37;21.90;39.30
67559;DHT22;54388;53.536;49.300;2023-04-25T04:49:11;22.10;38.70
67559;DHT22;54388;53.536;49.300;2023-04-25T04:51:41;22.30;38.10
67559;DHT22;54388;53.536;49.300;2023-04-25T04:54:10;22.40;37.60
67559;DHT22;54388;53.536;49.300;2023-04-25T04:56:39;22.60;37.20
67559;DHT22;54388;53.536;49.300;2023-04-25T04:59:06;22.80;36.90
67559;DHT22;54388;53.536;49.300;2023-04-25T05:01:33;23.00;36.50
67559;DHT22;54388;53.536;49.300;2023-04-25T05:04:02;23.10;36.30
67559;DHT22;54388;53.536;49.300;2023-04-25T05:06:30;23.30;36.10
67559;DHT22;54388;53.536;49.300;2023-04-25T05:09:00;23.50;36.00
67559;DHT22;54388;53.536;49.300;2023-04-25T05:11:29;23.60;35.80
67559;DHT22;54388;53.536;49.300;2023-04-25T05:13:56;23.80;35.60
67559;DHT22;54388;53.536;49.300;2023-04-25T05:16:25;24.00;35.40
67559;DHT22;54388;53.536;49.300;2023-04-25T05:18:52;24.20;35.10
67559;DHT22;54388;53.536;49.300;2023-04-25T05:21:19;24.40;34.80
67559;DHT22;54388;53.536;49.300;2023-04-25T05:23:45;24.60;34.40
67559;DHT22;54388;53.536;49.300;2023-04-25T05:26:12;24.80;33.90
67559;DHT22;54388;53.536;49.300;2023-04-25T05:28:44;25.00;33.50
67559;DHT22;54388;53.536;49.300;2023-04-25T05:31:13;25.20;33.20
67559;DHT22;54388;53.536;49.300;2023-04-25T05:33:43;25.40;34.00
67559;DHT22;54388;53.536;49.300;2023-04-25T05:36:09;25.50;32.30
67559;DHT22;54388;53.536;49.300;2023-04-25T05:38:36;25.70;32.00
67559;DHT22;54388;53.536;49.300;2023-04-25T05:41:03;25.90;31.70
67559;DHT22;54388;53.536;49.300;2023-04-25T05:43:30;26.00;31.20
67559;DHT22;54388;53.536;49.300;2023-04-25T05:45:57;26.10;30.90
67559;DHT22;54388;53.536;49.300;2023-04-25T05:48:23;26.30;30.60
67559;DHT22;54388;53.536;49.300;2023-04-25T05:50:52;26.30;30.20
67559;DHT22;54388;53.536;49.300;2023-04-25T05:53:21;26.40;30.00
67559;DHT22;54388;53.536;49.300;2023-04-25T05:55:52;26.60;29.70
67559;DHT22;54388;53.536;49.300;2023-04-25T05:58:19;26.70;29.60
67559;DHT22;54388;53.536;49.300;2023-04-25T06:00:48;26.80;29.60
67559;DHT22;54388;53.536;49.300;2023-04-25T06:03:15;26.90;29.40
67559;DHT22;54388;53.536;49.300;2023-04-25T06:05:44;27.00;29.20
67559;DHT22;54388;53.536;49.300;2023-04-25T06:08:11;27.10;28.90
67559;DHT22;54388;53.536;49.300;2023-04-25T06:10:42;27.30;28.80
67559;DHT22;54388;53.536;49.300;2023-04-25T06:13:08;27.40;28.50
67559;DHT22;54388;53.536;49.300;2023-04-25T06:15:35;27.60;28.40
67559;DHT22;54388;53.536;49.300;2023-04-25T06:18:06;27.70;28.40
67559;DHT22;54388;53.536;49.300;2023-04-25T06:20:33;27.80;28.30
67559;DHT22;54388;53.536;49.300;2023-04-25T06:23:00;27.90;28.20
67559;DHT22;54388;53.536;49.300;2023-04-25T06:25:26;28.00;28.00
67559;DHT22;54388;53.536;49.300;2023-04-25T06:27:53;28.10;28.10
67559;DHT22;54388;53.536;49.300;2023-04-25T06:30:19;28.20;28.10
67559;DHT22;54388;53.536;49.300;2023-04-25T06:32:48;28.30;28.20
67559;DHT22;54388;53.536;49.300;2023-04-25T06:35:15;28.40;27.90
67559;DHT22;54388;53.536;49.300;2023-04-25T06:37:44;28.50;27.70
67559;DHT22;54388;53.536;49.300;2023-04-25T06:40:10;28.50;27.60
67559;DHT22;54388;53.536;49.300;2023-04-25T06:42:37;28.50;27.50
67559;DHT22;54388;53.536;49.300;2023-04-25T06:45:03;28.60;27.50
67559;DHT22;54388;53.536;49.300;2023-04-25T06:47:30;28.60;27.30
67559;DHT22;54388;53.536;49.300;2023-04-25T06:49:57;28.70;27.20
67559;DHT22;54388;53.536;49.300;2023-04-25T06:52:24;28.70;27.50
67559;DHT22;54388;53.536;49.300;2023-04-25T06:54:55;28.80;28.20
67559;DHT22;54388;53.536;49.300;2023-04-25T06:57:22;28.80;27.40
67559;DHT22;54388;53.536;49.300;2023-04-25T06:59:54;28.80;27.40
67559;DHT22;54388;53.536;49.300;2023-04-25T07:02:21;28.80;27.30
67559;DHT22;54388;53.536;49.300;2023-04-25T07:04:48;28.80;27.30
67559;DHT22;54388;53.536;49.300;2023-04-25T07:07:15;28.80;27.30
67559;DHT22;54388;53.536;49.300;2023-04-25T07:09:45;28.90;27.30
67559;DHT22;54388;53.536;49.300;2023-04-25T07:12:12;28.90;27.40
67559;DHT22;54388;53.536;49.300;2023-04-25T07:14:39;28.90;27.60
67559;DHT22;54388;53.536;49.300;2023-04-25T07:17:06;28.80;27.90
67559;DHT22;54388;53.536;49.300;2023-04-25T07:19:35;28.80;28.00
67559;DHT22;54388;53.536;49.300;2023-04-25T07:22:04;28.70;28.00
67559;DHT22;54388;53.536;49.300;2023-04-25T07:24:30;28.70;28.40
67559;DHT22;54388;53.536;49.300;2023-04-25T07:26:57;28.60;28.30
67559;DHT22;54388;53.536;49.300;2023-04-25T07:29:28;28.60;28.60
67559;DHT22;54388;53.536;49.300;2023-04-25T07:31:59;28.50;28.40
67559;DHT22;54388;53.536;49.300;2023-04-25T07:34:26;28.50;28.30
67559;DHT22;54388;53.536;49.300;2023-04-25T07:36:52;28.40;28.20
67559;DHT22;54388;53.536;49.300;2023-04-25T07:39:20;28.40;28.30
67559;DHT22;54388;53.536;49.300;2023-04-25T07:41:51;28.30;28.20
67559;DHT22;54388;53.536;49.300;2023-04-25T07:44:18;28.30;28.60
67559;DHT22;54388;53.536;49.300;2023-04-25T07:46:45;28.30;28.70
67559;DHT22;54388;53.536;49.300;2023-04-25T07:49:12;28.30;28.80
67559;DHT22;54388;53.536;49.300;2023-04-25T07:51:42;28.30;28.80
67559;DHT22;54388;53.536;49.300;2023-04-25T07:54:13;28.30;29.00
67559;DHT22;54388;53.536;49.300;2023-04-25T07:56:40;28.20;29.10
67559;DHT22;54388;53.536;49.300;2023-04-25T07:59:07;28.20;29.10
67559;DHT22;54388;53.536;49.300;2023-04-25T08:01:39;28.20;29.20
67559;DHT22;54388;53.536;49.300;2023-04-25T08:04:08;28.20;29.40
67559;DHT22;54388;53.536;49.300;2023-04-25T08:06:37;28.20;29.30
67559;DHT22;54388;53.536;49.300;2023-04-25T08:09:04;28.10;29.30
67559;DHT22;54388;53.536;49.300;2023-04-25T08:11:31;28.10;29.10
67559;DHT22;54388;53.536;49.300;2023-04-25T08:13:58;28.10;28.90
67559;DHT22;54388;53.536;49.300;2023-04-25T08:16:25;28.00;28.70
67559;DHT22;54388;53.536;49.300;2023-04-25T08:18:54;28.00;28.40
67559;DHT22;54388;53.536;49.300;2023-04-25T08:21:21;28.00;28.30
67559;DHT22;54388;53.536;49.300;2023-04-25T08:23:48;28.00;28.20
67559;DHT22;54388;53.536;49.300;2023-04-25T08:26:17;28.00;28.00
67559;DHT22;54388;53.536;49.300;2023-04-25T08:28:44;28.10;27.80
67559;DHT22;54388;53.536;49.300;2023-04-25T08:31:11;28.10;27.70
67559;DHT22;54388;53.536;49.300;2023-04-25T08:33:37;28.20;27.70
67559;DHT22;54388;53.536;49.300;2023-04-25T08:36:05;28.20;27.60
67559;DHT22;54388;53.536;49.300;2023-04-25T08:38:32;28.30;27.40
67559;DHT22;54388;53.536;49.300;2023-04-25T08:41:03;28.40;27.30
67559;DHT22;54388;53.536;49.300;2023-04-25T08:43:33;28.40;27.10
67559;DHT22;54388;53.536;49.300;2023-04-25T08:46:01;28.40;27.00
67559;DHT22;54388;53.536;49.300;2023-04-25T08:48:28;28.50;26.90
67559;DHT22;54388;53.536;49.300;2023-04-25T08:50:56;28.50;26.90
67559;DHT22;54388;53.536;49.300;2023-04-25T08:53:26;28.60;26.70
67559;DHT22;54388;53.536;49.300;2023-04-25T08:55:57;28.60;26.60
67559;DHT22;54388;53.536;49.300;2023-04-25T08:58:24;28.60;26.70
67559;DHT22;54388;53.536;49.300;2023-04-25T09:00:52;28.70;26.90
67559;DHT22;54388;53.536;49.300;2023-04-25T09:03:19;28.60;26.90
67559;DHT22;54388;53.536;49.300;2023-04-25T09:05:45;28.60;26.90
67559;DHT22;54388;53.536;49.300;2023-04-25T09:08:12;28.60;27.20
67559;DHT22;54388;53.536;49.300;2023-04-25T09:10:40;28.60;27.30
67559;DHT22;54388;53.536;49.300;2023-04-25T09:13:11;28.60;27.30
67559;DHT22;54388;53.536;49.300;2023-04-25T09:15:54;28.70;27.30
67559;DHT22;54388;53.536;49.300;2023-04-25T09:18:28;28.70;27.40
67559;DHT22;54388;53.536;49.300;2023-04-25T09:21:10;28.70;27.50
67559;DHT22;54388;53.536;49.300;2023-04-25T09:23:44;28.70;27.50
67559;DHT22;54388;53.536;49.300;2023-04-25T09:26:17;28.70;27.60
67559;DHT22;54388;53.536;49.300;2023-04-25T09:28:47;28.70;27.60
67559;DHT22;54388;53.536;49.300;2023-04-25T09:31:23;28.70;27.50
67559;DHT22;54388;53.536;49.300;2023-04-25T09:34:02;28.70;27.40
67559;DHT22;54388;53.536;49.300;2023-04-25T09:36:30;28.70;27.70
67559;DHT22;54388;53.536;49.300;2023-04-25T09:38:59;28.70;27.60
67559;DHT22;54388;53.536;49.300;2023-04-25T09:41:27;28.80;27.90
67559;DHT22;54388;53.536;49.300;2023-04-25T09:43:57;28.80;28.10
67559;DHT22;54388;53.536;49.300;2023-04-25T09:46:24;28.80;28.60
67559;DHT22;54388;53.536;49.300;2023-04-25T09:48:51;28.80;28.70
67559;DHT22;54388;53.536;49.300;2023-04-25T09:51:19;28.70;28.80
67559;DHT22;54388;53.536;49.300;2023-04-25T09:53:47;28.70;29.00
67559;DHT22;54388;53.536;49.300;2023-04-25T09:56:16;28.70;29.00
67559;DHT22;54388;53.536;49.300;2023-04-25T09:58:47;28.70;29.30
67559;DHT22;54388;53.536;49.300;2023-04-25T10:01:16;28.70;29.60
67559;DHT22;54388;53.536;49.300;2023-04-25T10:03:44;28.60;29.80
67559;DHT22;54388;53.536;49.300;2023-04-25T10:06:17;28.60;30.00
67559;DHT22;54388;53.536;49.300;2023-04-25T10:08:44;28.50;30.10
67559;DHT22;54388;53.536;49.300;2023-04-25T10:11:12;28.50;30.20
67559;DHT22;54388;53.536;49.300;2023-04-25T10:13:47;28.40;30.50
67559;DHT22;54388;53.536;49.300;2023-04-25T10:16:13;28.40;30.60
67559;DHT22;54388;53.536;49.300;2023-04-25T10:18:40;28.30;30.30
67559;DHT22;54388;53.536;49.300;2023-04-25T10:21:10;28.20;30.30
67559;DHT22;54388;53.536;49.300;2023-04-25T10:23:37;28.10;30.00
67559;DHT22;54388;53.536;49.300;2023-04-25T10:26:09;28.10;30.00
67559;DHT22;54388;53.536;49.300;2023-04-25T10:29:05;28.00;29.90
67559;DHT22;54388;53.536;49.300;2023-04-25T10:31:32;28.00;30.10
67559;DHT22;54388;53.536;49.300;2023-04-25T10:34:01;28.00;30.30
67559;DHT22;54388;53.536;49.300;2023-04-25T10:36:31;27.90;30.50
67559;DHT22;54388;53.536;49.300;2023-04-25T10:39:06;27.80;30.70
67559;DHT22;54388;53.536;49.300;2023-04-25T10:41:58;27.70;31.10
67559;DHT22;54388;53.536;49.300;2023-04-25T10:44:29;27.50;31.50
67559;DHT22;54388;53.536;49.300;2023-04-25T10:47:00;27.40;31.70
67559;DHT22;54388;53.536;49.300;2023-04-25T10:49:33;27.40;31.80
67559;DHT22;54388;53.536;49.300;2023-04-25T10:52:15;27.20;32.00
67559;DHT22;54388;53.536;49.300;2023-04-25T10:54:52;27.10;32.10
67559;DHT22;54388;53.536;49.300;2023-04-25T10:57:39;27.00;32.50
67559;DHT22;54388;53.536;49.300;2023-04-25T11:00:08;26.90;34.20
67559;DHT22;54388;53.536;49.300;2023-04-25T11:02:42;26.80;33.10
67559;DHT22;54388;53.536;49.300;2023-04-25T11:05:33;26.70;32.90
67559;DHT22;54388;53.536;49.300;2023-04-25T11:08:00;26.60;33.70
67559;DHT22;54388;53.536;49.300;2023-04-25T11:10:36;26.50;33.80
67559;DHT22;54388;53.536;49.300;2023-04-25T11:13:04;26.40;33.60
67559;DHT22;54388;53.536;49.300;2023-04-25T11:15:35;26.40;34.00
67559;DHT22;54388;53.536;49.300;2023-04-25T11:18:06;26.30;34.50
67559;DHT22;54388;53.536;49.300;2023-04-25T11:20:32;26.20;34.80
67559;DHT22;54388;53.536;49.300;2023-04-25T11:23:02;26.20;35.10
67559;DHT22;54388;53.536;49.300;2023-04-25T11:25:29;26.10;35.30
67559;DHT22;54388;53.536;49.300;2023-04-25T11:28:01;26.00;35.50
67559;DHT22;54388;53.536;49.300;2023-04-25T11:30:29;26.00;35.90
67559;DHT22;54388;53.536;49.300;2023-04-25T11:32:59;25.90;35.80
67559;DHT22;54388;53.536;49.300;2023-04-25T11:35:26;25.80;35.70
67559;DHT22;54388;53.536;49.300;2023-04-25T11:37:55;25.80;35.60
67559;DHT22;54388;53.536;49.300;2023-04-25T11:40:22;25.70;36.00
67559;DHT22;54388;53.536;49.300;2023-04-25T11:42:52;25.70;36.00
67559;DHT22;54388;53.536;49.300;2023-04-25T11:45:19;25.70;36.20
67559;DHT22;54388;53.536;49.300;2023-04-25T11:47:46;25.60;36.30
67559;DHT22;54388;53.536;49.300;2023-04-25T11:50:18;25.60;36.30
67559;DHT22;54388;53.536;49.300;2023-04-25T11:52:47;25.50;36.20
67559;DHT22;54388;53.536;49.300;2023-04-25T11:55:16;25.50;36.40
67559;DHT22;54388;53.536;49.300;2023-04-25T11:57:45;25.40;36.30
67559;DHT22;54388;53.536;49.300;2023-04-25T12:00:14;25.40;36.40
67559;DHT22;54388;53.536;49.300;2023-04-25T12:02:46;25.40;36.40
67559;DHT22;54388;53.536;49.300;2023-04-25T12:05:16;25.40;36.70
67559;DHT22;54388;53.536;49.300;2023-04-25T12:07:43;25.30;37.10
67559;DHT22;54388;53.536;49.300;2023-04-25T12:10:12;25.20;37.20
67559;DHT22;54388;53.536;49.300;2023-04-25T12:12:45;25.20;37.30
67559;DHT22;54388;53.536;49.300;2023-04-25T12:15:17;25.20;37.70
67559;DHT22;54388;53.536;49.300;2023-04-25T12:17:50;25.10;37.80
67559;DHT22;54388;53.536;49.300;2023-04-25T12:20:24;25.00;38.30
67559;DHT22;54388;53.536;49.300;2023-04-25T12:22:52;25.00;38.60
67559;DHT22;54388;53.536;49.300;2023-04-25T12:25:55;24.90;38.80
67559;DHT22;54388;53.536;49.300;2023-04-25T12:28:26;24.80;38.80
67559;DHT22;54388;53.536;49.300;2023-04-25T12:30:59;24.80;38.90
67559;DHT22;54388;53.536;49.300;2023-04-25T12:33:32;24.80;39.10
67559;DHT22;54388;53.536;49.300;2023-04-25T12:36:05;24.70;39.20
67559;DHT22;54388;53.536;49.300;2023-04-25T12:38:38;24.70;39.50
67559;DHT22;54388;53.536;49.300;2023-04-25T12:41:10;24.70;39.60
67559;DHT22;54388;53.536;49.300;2023-04-25T12:43:40;24.60;40.00
67559;DHT22;54388;53.536;49.300;2023-04-25T12:46:07;24.60;40.60
67559;DHT22;54388;53.536;49.300;2023-04-25T12:48:36;24.50;40.80
67559;DHT22;54388;53.536;49.300;2023-04-25T12:51:04;24.50;40.90
67559;DHT22;54388;53.536;49.300;2023-04-25T12:53:31;24.40;41.10
67559;DHT22;54388;53.536;49.300;2023-04-25T12:55:58;24.30;41.20
67559;DHT22;54388;53.536;49.300;2023-04-25T12:58:25;24.30;41.20
67559;DHT22;54388;53.536;49.300;2023-04-25T13:00:52;24.30;41.50
67559;DHT22;54388;53.536;49.300;2023-04-25T13:03:19;24.20;41.60
67559;DHT22;54388;53.536;49.300;2023-04-25T13:05:46;24.20;41.80
67559;DHT22;54388;53.536;49.300;2023-04-25T13:08:12;24.10;45.20
67559;DHT22;54388;53.536;49.300;2023-04-25T13:10:40;24.00;50.40
67559;DHT22;54388;53.536;49.300;2023-04-25T13:13:09;23.80;53.70
67559;DHT22;54388;53.536;49.300;2023-04-25T13:15:36;23.60;60.40
67559;DHT22;54388;53.536;49.300;2023-04-25T13:18:06;23.40;62.90
67559;DHT22;54388;53.536;49.300;2023-04-25T13:20:33;23.20;66.40
67559;DHT22;54388;53.536;49.300;2023-04-25T13:23:00;22.90;71.90
67559;DHT22;54388;53.536;49.300;2023-04-25T13:25:27;22.80;69.90
67559;DHT22;54388;53.536;49.300;2023-04-25T13:27:54;22.70;70.90
67559;DHT22;54388;53.536;49.300;2023-04-25T13:30:23;22.60;68.50
67559;DHT22;54388;53.536;49.300;2023-04-25T13:32:50;22.50;67.70
67559;DHT22;54388;53.536;49.300;2023-04-25T13:35:17;22.40;67.00
67559;DHT22;54388;53.536;49.300;2023-04-25T13:37:47;22.30;69.20
67559;DHT22;54388;53.536;49.300;2023-04-25T13:40:17;22.20;68.90
67559;DHT22;54388;53.536;49.300;2023-04-25T13:42:46;22.10;70.40
67559;DHT22;54388;53.536;49.300;2023-04-25T13:45:16;22.00;70.80
67559;DHT22;54388;53.536;49.300;2023-04-25T13:47:42;22.00;73.50
67559;DHT22;54388;53.536;49.300;2023-04-25T13:50:12;21.90;73.10
67559;DHT22;54388;53.536;49.300;2023-04-25T13:52:45;21.80;76.20
67559;DHT22;54388;53.536;49.300;2023-04-25T13:55:12;21.70;76.90
67559;DHT22;54388;53.536;49.300;2023-04-25T13:57:38;21.60;77.00
67559;DHT22;54388;53.536;49.300;2023-04-25T14:00:05;21.50;78.50
67559;DHT22;54388;53.536;49.300;2023-04-25T14:02:35;21.40;78.90
67559;DHT22;54388;53.536;49.300;2023-04-25T14:05:05;21.40;82.40
67559;DHT22;54388;53.536;49.300;2023-04-25T14:07:36;21.30;83.60
67559;DHT22;54388;53.536;49.300;2023-04-25T14:10:04;21.20;85.10
67559;DHT22;54388;53.536;49.300;2023-04-25T14:12:32;21.10;86.60
67559;DHT22;54388;53.536;49.300;2023-04-25T14:14:59;21.10;89.50
67559;DHT22;54388;53.536;49.300;2023-04-25T14:17:28;21.00;91.00
67559;DHT22;54388;53.536;49.300;2023-04-25T14:19:59;20.80;93.50
67559;DHT22;54388;53.536;49.300;2023-04-25T14:22:26;20.70;96.60
67559;DHT22;54388;53.536;49.300;2023-04-25T14:24:54;20.60;99.90
67559;DHT22;54388;53.536;49.300;2023-04-25T14:27:21;20.50;99.90
67559;DHT22;54388;53.536;49.300;2023-04-25T14:29:48;20.40;99.90
67559;DHT22;54388;53.536;49.300;2023-04-25T14:32:15;20.30;99.90
67559;DHT22;54388;53.536;49.300;2023-04-25T14:34:41;20.30;99.90
67559;DHT22;54388;53.536;49.300;2023-04-25T14:37:08;20.30;99.90
67559;DHT22;54388;53.536;49.300;2023-04-25T14:39:34;20.20;99.90
67559;DHT22;54388;53.536;49.300;2023-04-25T14:42:02;20.10;99.90
67559;DHT22;54388;53.536;49.300;2023-04-25T14:44:31;20.10;99.90
67559;DHT22;54388;53.536;49.300;2023-04-25T14:46:58;20.00;99.90
67559;DHT22;54388;53.536;49.300;2023-04-25T14:49:25;20.00;99.90
67559;DHT22;54388;53.536;49.300;2023-04-25T14:51:52;20.00;99.90
67559;DHT22;54388;53.536;49.300;2023-04-25T14:54:19;19.90;99.90
67559;DHT22;54388;53.536;49.300;2023-04-25T14:56:46;19.80;99.90
67559;DHT22;54388;53.536;49.300;2023-04-25T14:59:13;19.80;99.90
67559;DHT22;54388;53.536;49.300;2023-04-25T15:01:40;19.70;99.90
67559;DHT22;54388;53.536;49.300;2023-04-25T15:04:07;19.70;99.90
67559;DHT22;54388;53.536;49.300;2023-04-25T15:06:36;19.70;99.90
67559;DHT22;54388;53.536;49.300;2023-04-25T15:09:06;19.70;99.90
67559;DHT22;54388;53.536;49.300;2023-04-25T15:11:34;19.70;99.90
67559;DHT22;54388;53.536;49.300;2023-04-25T15:14:01;19.70;99.90
67559;DHT22;54388;53.536;49.300;2023-04-25T15:16:28;19.60;99.90
67559;DHT22;54388;53.536;49.300;2023-04-25T15:18:57;19.50;99.90
67559;DHT22;54388;53.536;49.300;2023-04-25T15:21:24;19.50;99.90
67559;DHT22;54388;53.536;49.300;2023-04-25T15:23:52;19.40;99.90
67559;DHT22;54388;53.536;49.300;2023-04-25T15:26:19;19.40;99.90